Time;durP1;ratioP1;P1;durP2;ratioP2;P2;SDS_P1;SDS_P2;PMS_P1;PMS_P2;Temp;Humidity;BMP_temperature;BMP_pressure;BME280_temperature;BME280_humidity;BME280_pressure;Samples;Min_cycle;Max_cycle;Signal;HPM_P1;HPM_P2
2022/09/28 00:03:17;;;;;;;5.80;1.90;;;;;;;10.03;100.00;94984.44;10399095;27;96943;-82
2022/09/28 00:08:19;;;;;;;2.90;1.42;;;;;;;9.93;100.00;94989.88;10391831;27;97117;-82
2022/09/28 00:13:23;;;;;;;5.70;1.70;;;;;;;9.75;100.00;94977.16;10412112;27;99835;-82
2022/09/28 00:18:27;;;;;;;5.57;1.88;;;;;;;9.66;100.00;94983.38;10399422;27;96822;-82
2022/09/28 00:23:30;;;;;;;5.30;2.10;;;;;;;9.57;100.00;94959.16;10415453;27;97275;-82
2022/09/28 00:28:33;;;;;;;4.43;1.95;;;;;;;9.56;100.00;94954.09;10419627;28;96825;-83
2022/09/28 00:33:39;;;;;;;6.93;2.30;;;;;;;9.46;100.00;94944.72;10415367;27;96921;-82
2022/09/28 00:38:42;;;;;;;3.47;1.63;;;;;;;9.34;100.00;94935.66;10405887;27;96976;-82
2022/09/28 00:43:45;;;;;;;4.82;1.65;;;;;;;9.31;100.00;94938.59;10383175;27;99162;-82
2022/09/28 00:48:54;;;;;;;3.35;1.60;;;;;;;9.21;100.00;94938.00;10407529;27;99975;-82
2022/09/28 00:53:59;;;;;;;3.25;1.50;;;;;;;9.12;100.00;94916.38;10392844;27;96812;-82
2022/09/28 00:59:03;;;;;;;3.60;1.50;;;;;;;9.06;100.00;94915.28;10447258;27;97661;-82
2022/09/28 01:04:07;;;;;;;4.07;1.70;;;;;;;9.01;100.00;94899.34;10397014;27;99210;-82
2022/09/28 01:09:12;;;;;;;6.90;1.70;;;;;;;8.96;100.00;94903.47;10453769;27;97281;-82
2022/09/28 01:14:16;;;;;;;4.27;1.60;;;;;;;8.94;100.00;94882.78;10395452;27;97569;-82
2022/09/28 01:19:43;;;;;;;5.53;2.00;;;;;;;8.91;100.00;94875.31;10422540;27;96824;-82
2022/09/28 01:24:47;;;;;;;4.63;2.10;;;;;;;8.87;100.00;94859.22;10454180;27;97462;-82
2022/09/28 01:29:59;;;;;;;4.35;1.55;;;;;;;8.86;100.00;94862.81;10420357;27;97222;-81
2022/09/28 01:35:07;;;;;;;4.45;1.73;;;;;;;8.86;100.00;94857.59;10427220;27;97178;-82
2022/09/28 01:40:13;;;;;;;5.35;1.48;;;;;;;8.84;100.00;94845.72;10379836;28;97101;-82
2022/09/28 01:45:23;;;;;;;3.92;1.63;;;;;;;8.87;100.00;94840.19;10412198;27;96918;-82
2022/09/28 01:50:30;;;;;;;6.45;1.75;;;;;;;8.80;100.00;94818.41;10398451;27;97787;-82
2022/09/28 01:55:37;;;;;;;3.17;1.52;;;;;;;8.78;100.00;94829.00;10391167;28;97061;-83
2022/09/28 02:00:45;;;;;;;4.57;1.73;;;;;;;8.77;100.00;94810.94;10395048;27;97305;-82
2022/09/28 02:05:54;;;;;;;3.97;1.70;;;;;;;8.75;100.00;94818.13;10394103;27;97343;-82
2022/09/28 02:11:04;;;;;;;3.85;1.73;;;;;;;8.81;100.00;94812.22;10397498;27;96890;-82
2022/09/28 02:16:14;;;;;;;4.65;1.50;;;;;;;8.83;100.00;94799.81;10410344;27;98310;-81
2022/09/28 02:21:23;;;;;;;4.28;1.50;;;;;;;8.90;100.00;94795.56;10400296;27;96897;-82
2022/09/28 02:26:31;;;;;;;1.70;1.35;;;;;;;8.92;100.00;94796.22;10397633;28;96983;-82
2022/09/28 02:31:36;;;;;;;2.15;1.15;;;;;;;8.91;100.00;94797.19;10398327;27;96963;-81
2022/09/28 02:36:39;;;;;;;4.33;1.60;;;;;;;8.94;100.00;94794.22;10414358;27;97614;-81
2022/09/28 02:42:01;;;;;;;2.17;1.00;;;;;;;8.96;100.00;94774.03;10413423;27;97142;-81
2022/09/28 02:47:16;;;;;;;1.15;0.88;;;;;;;8.95;100.00;94756.81;10411476;27;97030;-82
2022/09/28 02:52:41;;;;;;;0.88;0.80;;;;;;;8.94;100.00;94752.56;10420776;27;99725;-82
2022/09/28 02:58:01;;;;;;;2.38;0.85;;;;;;;8.94;100.00;94741.34;10396618;27;96790;-82
2022/09/28 03:03:12;;;;;;;1.30;0.60;;;;;;;8.96;100.00;94742.78;10405686;27;99263;-82
2022/09/28 03:08:23;;;;;;;1.90;0.80;;;;;;;9.00;100.00;94741.47;10381361;27;97170;-82
2022/09/28 03:13:28;;;;;;;1.60;0.70;;;;;;;9.02;100.00;94723.84;10456568;27;98984;-82
2022/09/28 03:18:32;;;;;;;1.67;0.60;;;;;;;9.02;100.00;94721.25;10399813;27;99927;-82
2022/09/28 03:23:35;;;;;;;1.38;0.60;;;;;;;9.01;100.00;94724.81;10449274;27;97140;-82
2022/09/28 03:28:38;;;;;;;0.63;0.43;;;;;;;9.01;100.00;94714.41;10464634;27;96849;-82
2022/09/28 03:33:42;;;;;;;0.60;0.50;;;;;;;9.07;100.00;94703.31;10463714;27;96724;-82
2022/09/28 03:38:44;;;;;;;0.65;0.50;;;;;;;9.11;100.00;94688.94;10404587;27;96792;-82
2022/09/28 03:43:47;;;;;;;1.13;0.55;;;;;;;9.10;100.00;94696.91;10380848;27;98627;-82
2022/09/28 03:48:51;;;;;;;0.63;0.40;;;;;;;9.16;100.00;94680.59;10380185;28;96917;-82
2022/09/28 03:53:54;;;;;;;0.70;0.70;;;;;;;9.17;100.00;94671.78;10421628;27;96905;-82
2022/09/28 03:58:59;;;;;;;0.52;0.50;;;;;;;9.17;100.00;94687.41;10422099;27;97114;-82
2022/09/28 04:04:04;;;;;;;1.30;0.30;;;;;;;9.23;100.00;94688.50;10427528;27;96718;-82
2022/09/28 04:09:07;;;;;;;0.87;0.40;;;;;;;9.31;100.00;94683.19;10416204;27;97102;-82
2022/09/28 04:14:09;;;;;;;0.50;0.30;;;;;;;9.35;100.00;94666.25;10423935;27;97093;-81
2022/09/28 04:19:14;;;;;;;0.63;0.30;;;;;;;9.37;100.00;94671.28;10400281;27;97791;-81
2022/09/28 04:24:17;;;;;;;0.47;0.40;;;;;;;9.42;100.00;94661.09;10399751;28;97503;-81
2022/09/28 04:29:20;;;;;;;0.80;0.55;;;;;;;9.53;100.00;94654.69;10411583;27;100750;-82
2022/09/28 04:34:24;;;;;;;1.27;0.60;;;;;;;9.62;100.00;94637.94;10401137;27;97844;-82
2022/09/28 04:39:27;;;;;;;2.28;0.77;;;;;;;9.68;100.00;94626.81;10393014;27;97053;-82
2022/09/28 04:44:29;;;;;;;0.50;0.30;;;;;;;9.74;100.00;94620.03;10418422;27;97004;-82
2022/09/28 04:49:35;;;;;;;1.02;0.40;;;;;;;9.76;100.00;94608.44;10389344;27;97070;-82
2022/09/28 04:54:38;;;;;;;0.93;0.30;;;;;;;9.81;100.00;94610.50;10397976;28;99635;-82
2022/09/28 04:59:41;;;;;;;0.95;0.40;;;;;;;9.84;100.00;94595.28;10401126;27;97039;-82
2022/09/28 05:04:45;;;;;;;0.85;0.40;;;;;;;9.88;100.00;94584.50;10396088;27;99217;-82
2022/09/28 05:09:48;;;;;;;1.73;0.40;;;;;;;9.91;100.00;94579.72;10397624;27;99771;-82
2022/09/28 05:14:50;;;;;;;0.60;0.30;;;;;;;9.99;100.00;94570.97;10407415;28;97173;-82
2022/09/28 05:19:54;;;;;;;0.47;0.20;;;;;;;9.99;100.00;94563.97;10398302;27;97631;-82
2022/09/28 05:24:59;;;;;;;0.50;0.50;;;;;;;10.03;100.00;94567.81;10391555;28;96788;-82
2022/09/28 05:30:01;;;;;;;0.27;0.27;;;;;;;10.13;100.00;94571.91;10400195;27;97001;-82
2022/09/28 05:35:07;;;;;;;0.70;0.50;;;;;;;10.10;100.00;94557.44;10415545;27;98549;-82
2022/09/28 05:40:11;;;;;;;0.57;0.35;;;;;;;10.13;100.00;94571.91;10416537;28;96971;-82
2022/09/28 05:45:14;;;;;;;0.22;0.20;;;;;;;10.15;100.00;94575.13;10418340;27;97112;-82
2022/09/28 05:50:18;;;;;;;1.65;0.30;;;;;;;10.19;100.00;94564.13;10409149;27;97097;-82
2022/09/28 05:55:21;;;;;;;0.88;0.30;;;;;;;10.20;100.00;94563.16;10401591;27;100186;-82
2022/09/28 06:00:23;;;;;;;3.13;0.50;;;;;;;10.22;100.00;94569.00;10420123;28;100535;-82
2022/09/28 06:05:30;;;;;;;2.58;0.57;;;;;;;10.31;100.00;94564.47;10424331;27;97229;-82
2022/09/28 06:10:33;;;;;;;3.28;0.90;;;;;;;10.38;100.00;94564.53;10418365;28;97571;-82
2022/09/28 06:15:36;;;;;;;2.47;0.40;;;;;;;10.43;100.00;94565.56;10408283;27;99413;-82
2022/09/28 06:20:41;;;;;;;4.47;0.60;;;;;;;10.45;100.00;94560.16;10402580;27;99027;-82
2022/09/28 06:25:44;;;;;;;1.48;0.22;;;;;;;10.48;100.00;94554.56;10414271;27;97086;-82
2022/09/28 06:30:47;;;;;;;0.30;0.10;;;;;;;10.52;100.00;94552.38;10392548;28;97569;-83
2022/09/28 06:35:51;;;;;;;1.10;0.40;;;;;;;10.54;100.00;94564.25;10423613;27;98409;-82
2022/09/28 06:40:54;;;;;;;2.00;0.30;;;;;;;10.64;100.00;94563.13;10424970;27;97207;-83
2022/09/28 06:45:56;;;;;;;1.55;0.57;;;;;;;10.70;100.00;94567.56;10453469;27;96927;-82
2022/09/28 06:51:02;;;;;;;1.10;0.30;;;;;;;10.69;100.00;94566.78;10438647;27;97013;-83
2022/09/28 06:56:06;;;;;;;;;;;;;;;10.60;100.00;94568.72;10358174;28;96811;-83
2022/09/28 07:01:10;;;;;;;0.75;0.47;;;;;;;10.66;100.00;94585.44;10360221;28;98710;-83
2022/09/28 07:06:15;;;;;;;0.43;0.40;;;;;;;10.71;100.00;94571.81;10360296;28;97240;-83
2022/09/28 07:11:19;;;;;;;1.40;0.60;;;;;;;10.74;100.00;94576.66;10349219;28;98908;-83
2022/09/28 07:16:22;;;;;;;0.55;0.40;;;;;;;10.74;100.00;94579.28;10353691;28;97080;-83
2022/09/28 07:21:32;;;;;;;1.50;0.30;;;;;;;10.77;100.00;94576.25;10351219;28;98820;-83
2022/09/28 07:26:35;;;;;;;0.73;0.30;;;;;;;10.85;100.00;94589.19;10364646;28;100225;-82
2022/09/28 07:31:38;;;;;;;0.93;0.50;;;;;;;10.96;100.00;94598.31;10362746;28;97678;-83
2022/09/28 07:36:42;;;;;;;1.30;0.40;;;;;;;10.99;100.00;94603.16;10354454;28;99688;-82
2022/09/28 07:41:45;;;;;;;2.97;0.73;;;;;;;11.08;100.00;94601.22;10353601;28;97618;-83
2022/09/28 07:46:47;;;;;;;0.75;0.50;;;;;;;11.17;100.00;94610.50;10354539;28;97215;-83
2022/09/28 07:51:51;;;;;;;0.38;0.30;;;;;;;11.27;100.00;94597.91;10366764;27;96960;-83
2022/09/28 07:56:54;;;;;;;1.00;0.40;;;;;;;11.22;100.00;94623.81;10421579;28;97269;-83
2022/09/28 08:01:57;;;;;;;0.80;0.30;;;;;;;11.21;100.00;94632.66;10405995;27;96926;-83
2022/09/28 08:07:01;;;;;;;0.38;0.20;;;;;;;11.25;100.00;94612.19;10398588;27;97382;-83
2022/09/28 08:12:04;;;;;;;0.40;0.30;;;;;;;11.38;100.00;94621.94;10405885;27;96997;-83
2022/09/28 08:17:07;;;;;;;0.77;0.30;;;;;;;11.47;100.00;94626.03;10418843;27;97092;-83
2022/09/28 08:22:12;;;;;;;0.20;0.20;;;;;;;11.53;100.00;94614.78;10408523;28;97003;-83
2022/09/28 08:27:17;;;;;;;0.63;0.30;;;;;;;11.60;100.00;94620.03;10422089;28;97240;-83
2022/09/28 08:32:20;;;;;;;2.92;0.40;;;;;;;11.65;100.00;94623.69;10421176;27;96725;-83
2022/09/28 08:37:26;;;;;;;0.75;0.30;;;;;;;11.64;100.00;94629.09;10422029;28;98279;-83
2022/09/28 08:42:35;;;;;;;0.63;0.38;;;;;;;11.62;100.00;94626.69;10412014;27;97497;-83
2022/09/28 08:53:27;;;;;;;0.73;0.40;;;;;;;11.65;100.00;94605.38;10404808;27;97265;-83
2022/09/28 08:58:35;;;;;;;0.80;0.32;;;;;;;11.71;100.00;94599.38;10380030;28;96814;-83
2022/09/28 09:03:40;;;;;;;0.82;0.43;;;;;;;11.77;100.00;94595.16;10418368;27;96729;-83
2022/09/28 09:08:56;;;;;;;0.75;0.30;;;;;;;11.92;100.00;94597.66;10456977;27;97255;-83
2022/09/28 09:14:14;;;;;;;2.13;0.30;;;;;;;12.05;100.00;94592.44;10420412;27;96816;-83
2022/09/28 09:19:28;;;;;;;1.48;0.30;;;;;;;12.19;100.00;94605.56;10422043;27;96983;-83
2022/09/28 09:24:42;;;;;;;2.00;0.60;;;;;;;12.27;100.00;94605.41;10462002;27;96843;-83
2022/09/28 09:30:02;;;;;;;0.25;0.25;;;;;;;12.34;100.00;94608.84;10397322;28;97308;-83
2022/09/28 09:35:21;;;;;;;0.30;0.20;;;;;;;12.31;100.00;94611.84;10391323;28;97787;-83
2022/09/28 09:40:52;;;;;;;1.15;0.50;;;;;;;12.31;100.00;94603.97;10397504;27;96824;-83
2022/09/28 09:46:06;;;;;;;1.38;0.30;;;;;;;12.41;100.00;94591.31;10423599;28;97129;-83
2022/09/28 09:51:16;;;;;;;0.50;0.20;;;;;;;12.54;100.00;94585.28;10410940;27;97190;-83
2022/09/28 09:56:26;;;;;;;0.70;0.35;;;;;;;12.65;100.00;94586.50;10399765;28;96902;-83
2022/09/28 10:01:34;;;;;;;2.47;0.57;;;;;;;12.75;100.00;94575.63;10416499;27;98540;-83
2022/09/28 10:06:38;;;;;;;0.50;0.40;;;;;;;12.79;100.00;94561.91;10448501;27;97137;-83
2022/09/28 10:11:46;;;;;;;0.90;0.63;;;;;;;12.86;100.00;94562.72;10439823;27;96803;-83
2022/09/28 10:16:51;;;;;;;1.20;0.70;;;;;;;12.95;100.00;94554.69;10425753;28;97540;-83
2022/09/28 10:21:53;;;;;;;;;;;;;;;12.94;100.00;94553.84;10438404;27;98244;-84
2022/09/28 10:27:04;;;;;;;1.85;1.42;;;;;;;12.99;100.00;94556.66;10404719;27;96831;-84
2022/09/28 10:32:20;;;;;;;1.88;1.48;;;;;;;12.99;100.00;94554.03;10415444;27;97394;-84
2022/09/28 10:37:23;;;;;;;4.00;2.55;;;;;;;12.96;100.00;94557.09;10424540;27;96687;-84
2022/09/28 10:42:30;;;;;;;2.60;1.70;;;;;;;12.90;100.00;94557.06;10410564;28;100755;-84
2022/09/28 10:47:35;;;;;;;3.53;2.53;;;;;;;12.85;100.00;94557.66;10406385;28;97870;-84
2022/09/28 10:52:40;;;;;;;3.08;2.00;;;;;;;12.86;100.00;94554.84;10425221;27;96862;-84
2022/09/28 10:57:44;;;;;;;;;;;;;;;12.87;100.00;94559.09;10425210;27;96678;-84
2022/09/28 11:02:47;;;;;;;1.88;0.73;;;;;;;12.99;100.00;94546.19;10455246;27;96945;-84
2022/09/28 11:07:51;;;;;;;0.85;0.60;;;;;;;13.10;100.00;94542.16;10465309;27;97238;-84
2022/09/28 11:12:56;;;;;;;2.13;0.40;;;;;;;13.19;100.00;94548.00;10428276;27;96799;-84
2022/09/28 11:18:20;;;;;;;0.55;0.45;;;;;;;13.24;100.00;94528.00;10407559;28;97092;-84
2022/09/28 11:23:30;;;;;;;1.23;0.40;;;;;;;13.32;100.00;94518.28;10403118;27;99627;-84
2022/09/28 11:28:37;;;;;;;0.98;0.55;;;;;;;13.34;100.00;94516.25;10413719;28;99812;-84
2022/09/28 11:33:43;;;;;;;1.33;0.52;;;;;;;13.41;100.00;94511.78;10414169;27;96792;-84
2022/09/28 11:39:00;;;;;;;1.13;0.60;;;;;;;13.55;100.00;94499.44;10417089;27;97468;-84
2022/09/28 11:44:19;;;;;;;3.15;1.58;;;;;;;13.77;100.00;94495.47;10400598;27;98371;-84
2022/09/28 11:49:30;;;;;;;0.63;0.55;;;;;;;13.87;100.00;94495.03;10383952;28;96675;-84
2022/09/28 11:54:40;;;;;;;1.02;0.50;;;;;;;13.90;100.00;94489.38;10422927;28;97842;-84
2022/09/28 11:59:52;;;;;;;3.03;0.60;;;;;;;13.91;100.00;94485.72;10417328;28;96702;-84
2022/09/28 12:04:59;;;;;;;2.03;0.80;;;;;;;13.92;100.00;94478.66;10387785;28;96972;-84
2022/09/28 12:10:11;;;;;;;0.88;0.55;;;;;;;13.86;100.00;94475.03;10414701;28;96809;-84
2022/09/28 12:15:18;;;;;;;2.03;0.70;;;;;;;13.86;100.00;94477.66;10380752;28;96844;-84
2022/09/28 12:20:26;;;;;;;1.45;0.70;;;;;;;13.81;100.00;94485.38;10390583;28;96773;-84
2022/09/28 12:25:37;;;;;;;1.05;0.50;;;;;;;13.70;100.00;94491.28;10421953;28;97056;-85
2022/09/28 12:30:43;;;;;;;1.83;0.57;;;;;;;13.54;100.00;94480.25;10408841;28;97146;-85
2022/09/28 12:36:02;;;;;;;1.38;0.70;;;;;;;13.53;100.00;94457.66;10380636;28;98004;-85
2022/09/28 12:41:21;;;;;;;2.95;1.50;;;;;;;13.49;100.00;94458.31;10396298;28;96628;-85
2022/09/28 12:46:41;;;;;;;3.80;1.45;;;;;;;13.50;100.00;94457.28;10421305;28;96881;-84
2022/09/28 12:51:51;;;;;;;4.15;1.80;;;;;;;13.44;100.00;94464.16;10397743;28;96653;-84
2022/09/28 12:57:06;;;;;;;4.45;1.55;;;;;;;13.41;100.00;94447.03;10379269;28;97106;-85
2022/09/28 13:02:49;;;;;;;4.10;2.03;;;;;;;13.39;100.00;94440.38;10403019;28;98005;-84
2022/09/28 13:08:01;;;;;;;2.30;1.00;;;;;;;13.35;100.00;94434.75;10420077;28;97778;-84
2022/09/28 13:13:20;;;;;;;2.95;0.77;;;;;;;13.33;100.00;94436.00;10387497;28;96868;-84
2022/09/28 13:18:32;;;;;;;2.78;1.10;;;;;;;13.31;100.00;94438.81;10378850;28;96708;-84
2022/09/28 13:23:40;;;;;;;2.03;1.08;;;;;;;13.28;100.00;94459.41;10416584;28;97005;-84
2022/09/28 13:28:46;;;;;;;2.45;0.75;;;;;;;13.33;100.00;94459.59;10420995;27;96745;-84
2022/09/28 13:33:52;;;;;;;2.13;0.70;;;;;;;13.33;100.00;94476.13;10380517;28;97019;-83
2022/09/28 13:38:56;;;;;;;3.92;0.90;;;;;;;13.22;100.00;94488.06;10378570;28;96940;-83
2022/09/28 13:44:23;;;;;;;1.88;0.60;;;;;;;13.12;100.00;94506.06;10415945;28;96726;-84
2022/09/28 13:49:40;;;;;;;1.35;0.63;;;;;;;13.13;100.00;94494.53;10419247;27;96654;-83
2022/09/28 13:55:02;;;;;;;1.02;0.60;;;;;;;13.17;100.00;94472.16;10419356;28;96938;-84
2022/09/28 14:00:17;;;;;;;3.95;2.00;;;;;;;13.22;100.00;94472.34;10426952;27;96713;-84
2022/09/28 14:06:03;;;;;;;1.23;0.60;;;;;;;13.15;100.00;94478.59;10460521;27;96757;-83
2022/09/28 14:11:48;;;;;;;1.52;0.70;;;;;;;13.19;100.00;94464.09;10416110;27;96996;-83
2022/09/28 14:17:24;;;;;;;1.50;1.02;;;;;;;13.26;100.00;94482.41;10425514;27;97278;-83
2022/09/28 14:22:35;;;;;;;1.35;0.60;;;;;;;13.20;100.00;94479.59;10454335;27;97678;-83
2022/09/28 14:28:00;;;;;;;0.93;0.50;;;;;;;13.09;100.00;94479.44;10467757;27;97489;-83
2022/09/28 14:33:16;;;;;;;1.37;0.80;;;;;;;13.05;100.00;94468.56;10433769;27;96713;-83
2022/09/28 14:44:05;;;;;;;0.98;0.60;;;;;;;12.99;100.00;94493.75;10428159;27;96757;-83
2022/09/28 14:49:41;;;;;;;2.10;1.00;;;;;;;13.05;100.00;94444.97;10425110;27;96797;-83
2022/09/28 14:54:52;;;;;;;0.90;0.60;;;;;;;13.21;100.00;94451.56;10463851;27;96663;-83
2022/09/28 14:59:58;;;;;;;0.80;0.60;;;;;;;13.30;100.00;94475.72;10459865;27;97483;-83
2022/09/28 15:05:12;;;;;;;0.90;0.60;;;;;;;13.31;100.00;94475.53;10424245;28;96700;-83
2022/09/28 15:10:24;;;;;;;1.05;0.65;;;;;;;13.44;100.00;94485.16;10424473;27;96883;-83
2022/09/28 15:15:35;;;;;;;1.45;0.60;;;;;;;13.57;100.00;94471.97;10414557;27;99673;-84
2022/09/28 15:20:42;;;;;;;1.20;0.88;;;;;;;13.66;100.00;94456.00;10404037;27;96903;-83
2022/09/28 15:25:51;;;;;;;1.13;0.55;;;;;;;13.69;100.00;94481.81;10423838;27;96704;-84
2022/09/28 15:31:00;;;;;;;2.47;0.45;;;;;;;13.67;100.00;94468.09;10437394;27;97290;-84
2022/09/28 15:36:07;;;;;;;1.00;0.50;;;;;;;13.59;100.00;94472.56;10465726;27;97389;-84
2022/09/28 15:41:11;;;;;;;1.08;0.50;;;;;;;13.51;100.00;94477.25;10448433;27;97407;-84
2022/09/28 15:46:19;;;;;;;1.23;0.50;;;;;;;13.43;100.00;94478.31;10423028;28;96743;-84
2022/09/28 15:51:24;;;;;;;0.60;0.50;;;;;;;13.39;100.00;94498.09;10441252;27;96721;-84
2022/09/28 15:56:28;;;;;;;;;;;;;;;13.38;100.00;94499.13;10465192;27;97113;-84
2022/09/28 16:01:35;;;;;;;0.40;0.38;;;;;;;13.50;100.00;94510.56;10445479;27;97314;-83
2022/09/28 16:06:40;;;;;;;2.03;0.50;;;;;;;13.41;100.00;94522.28;10422965;28;97409;-84
2022/09/28 16:11:49;;;;;;;1.75;0.52;;;;;;;13.33;100.00;94520.72;10439686;27;96940;-85
2022/09/28 16:16:54;;;;;;;0.82;0.40;;;;;;;13.24;100.00;94554.22;10459933;27;97243;-85
2022/09/28 16:22:05;;;;;;;0.55;0.38;;;;;;;13.13;100.00;94562.69;10418412;27;96841;-84
2022/09/28 16:27:25;;;;;;;1.27;0.40;;;;;;;13.10;100.00;94562.31;10420794;28;96755;-85
2022/09/28 16:32:37;;;;;;;0.88;0.57;;;;;;;13.08;100.00;94565.13;10439180;27;97598;-85
2022/09/28 16:37:41;;;;;;;0.50;0.30;;;;;;;12.93;100.00;94580.28;10433148;27;98386;-84
2022/09/28 16:42:46;;;;;;;2.03;0.43;;;;;;;12.73;100.00;94588.13;10441415;27;96865;-84
2022/09/28 16:47:51;;;;;;;0.45;0.38;;;;;;;12.75;100.00;94586.91;10425757;27;96820;-84
2022/09/28 16:58:25;;;;;;;2.00;0.95;;;;;;;12.76;100.00;94612.09;10419146;27;96721;-84
2022/09/28 17:03:29;;;;;;;0.20;0.10;;;;;;;12.75;100.00;94618.38;10419267;27;97093;-84
2022/09/28 17:08:34;;;;;;;0.73;0.50;;;;;;;12.81;100.00;94622.78;10419360;27;97292;-85
2022/09/28 17:13:38;;;;;;;1.77;0.60;;;;;;;12.79;100.00;94630.03;10419457;27;98512;-83
2022/09/28 17:18:41;;;;;;;0.30;0.30;;;;;;;12.67;100.00;94636.88;10402078;28;97279;-83
2022/09/28 17:23:45;;;;;;;0.70;0.40;;;;;;;12.65;100.00;94644.16;10421045;27;96719;-83
2022/09/28 17:28:49;;;;;;;2.42;0.47;;;;;;;12.60;100.00;94654.41;10412628;27;98134;-83
2022/09/28 17:33:53;;;;;;;0.63;0.40;;;;;;;12.53;100.00;94651.78;10407642;27;97285;-84
2022/09/28 17:38:56;;;;;;;1.20;0.55;;;;;;;12.56;100.00;94650.56;10422028;27;96854;-85
2022/09/28 17:44:01;;;;;;;2.10;1.25;;;;;;;12.59;100.00;94639.69;10407029;27;96807;-86
2022/09/28 17:49:06;;;;;;;1.60;1.30;;;;;;;12.55;100.00;94648.97;10429029;27;96842;-84
2022/09/28 17:54:09;;;;;;;1.80;1.50;;;;;;;12.49;100.00;94646.13;10399536;27;96822;-83
2022/09/28 17:59:17;;;;;;;1.88;1.10;;;;;;;12.47;100.00;94645.53;10405147;27;97360;-85
2022/09/28 18:04:20;;;;;;;6.75;4.38;;;;;;;12.49;100.00;94642.69;10410675;28;97113;-85
2022/09/28 18:09:43;;;;;;;2.28;1.60;;;;;;;12.53;100.00;94645.72;10388400;27;96967;-83
2022/09/28 18:14:47;;;;;;;2.42;1.70;;;;;;;12.48;100.00;94651.56;10420115;27;96826;-85
2022/09/28 18:19:50;;;;;;;5.17;3.07;;;;;;;12.45;100.00;94644.91;10396169;27;97079;-85
2022/09/28 18:24:53;;;;;;;4.00;2.88;;;;;;;12.44;100.00;94632.81;10425382;27;98201;-85
2022/09/28 18:29:57;;;;;;;6.45;2.88;;;;;;;12.44;100.00;94642.47;10406882;27;97316;-85
2022/09/28 18:34:59;;;;;;;5.80;3.77;;;;;;;12.43;100.00;94646.91;10393603;27;97232;-84
2022/09/28 18:40:02;;;;;;;8.75;5.85;;;;;;;12.39;100.00;94640.47;10405099;27;97234;-85
2022/09/28 18:45:10;;;;;;;4.88;4.35;;;;;;;12.30;100.00;94647.69;10396350;27;98544;-85
2022/09/28 18:50:14;;;;;;;4.38;2.70;;;;;;;12.21;100.00;94650.69;10394536;28;97456;-84
2022/09/28 18:55:17;;;;;;;4.50;2.73;;;;;;;12.19;100.00;94635.16;10395925;28;97268;-85
2022/09/28 19:00:21;;;;;;;4.00;3.20;;;;;;;12.21;100.00;94637.59;10423620;27;98853;-85
2022/09/28 19:05:27;;;;;;;5.47;3.80;;;;;;;12.10;100.00;94621.44;10400313;28;97186;-85
2022/09/28 19:10:30;;;;;;;15.88;11.15;;;;;;;12.13;100.00;94620.25;10406034;27;97105;-85
2022/09/28 19:15:34;;;;;;;14.68;10.98;;;;;;;12.13;100.00;94625.50;10393528;28;98848;-85
2022/09/28 19:20:37;;;;;;;6.27;4.00;;;;;;;12.05;100.00;94623.84;10390710;28;97296;-84
2022/09/28 19:25:40;;;;;;;7.65;3.78;;;;;;;12.03;100.00;94636.31;10383655;28;96733;-84
2022/09/28 19:30:44;;;;;;;4.43;2.85;;;;;;;12.08;100.00;94631.31;10396698;28;96936;-85
2022/09/28 19:35:55;;;;;;;5.47;3.60;;;;;;;12.04;100.00;94637.97;10428810;27;97801;-83
2022/09/28 19:40:58;;;;;;;4.65;2.78;;;;;;;12.01;100.00;94648.81;10385675;27;97211;-85
2022/09/28 19:46:06;;;;;;;3.58;1.70;;;;;;;11.99;100.00;94648.19;10410215;27;97161;-84
2022/09/28 19:51:09;;;;;;;3.97;1.33;;;;;;;11.94;100.00;94642.75;10393621;28;97706;-84
2022/09/28 19:56:12;;;;;;;5.88;3.63;;;;;;;11.89;100.00;94645.94;10387519;28;97062;-84
2022/09/28 20:01:16;;;;;;;3.50;1.25;;;;;;;11.87;100.00;94653.19;10394719;28;97156;-84
2022/09/28 20:06:19;;;;;;;1.17;0.90;;;;;;;11.83;100.00;94656.38;10396338;28;96849;-84
2022/09/28 20:11:23;;;;;;;2.45;1.30;;;;;;;11.82;100.00;94652.16;10397942;27;97470;-85
2022/09/28 20:16:28;;;;;;;2.00;1.20;;;;;;;11.81;100.00;94640.06;10387858;28;96768;-85
2022/09/28 20:21:31;;;;;;;2.35;0.90;;;;;;;11.84;100.00;94634.44;10382620;28;97544;-84
2022/09/28 20:26:36;;;;;;;3.17;1.20;;;;;;;11.80;100.00;94631.41;10383774;28;96952;-85
2022/09/28 20:31:41;;;;;;;1.70;1.20;;;;;;;11.69;100.00;94635.41;10423681;27;97189;-85
2022/09/28 20:36:44;;;;;;;1.73;1.00;;;;;;;11.68;100.00;94636.38;10384437;28;96881;-85
2022/09/28 20:41:47;;;;;;;4.45;1.02;;;;;;;11.72;100.00;94637.59;10386360;28;98566;-85
2022/09/28 20:46:52;;;;;;;2.50;0.70;;;;;;;11.76;100.00;94634.59;10408752;28;97311;-85
2022/09/28 20:51:55;;;;;;;2.30;0.90;;;;;;;11.80;100.00;94633.19;10416105;27;97055;-85
2022/09/28 20:56:57;;;;;;;2.80;1.13;;;;;;;11.81;100.00;94621.75;10425601;27;97289;-84
2022/09/28 21:02:01;;;;;;;1.85;1.25;;;;;;;11.79;100.00;94621.16;10384991;28;97919;-84
2022/09/28 21:07:04;;;;;;;0.57;0.30;;;;;;;11.71;100.00;94625.53;10378728;28;97028;-85
2022/09/28 21:12:08;;;;;;;2.30;0.47;;;;;;;11.60;100.00;94620.84;10388330;28;98258;-84
2022/09/28 21:17:12;;;;;;;1.00;0.63;;;;;;;11.56;100.00;94624.84;10394520;28;98394;-84
2022/09/28 21:22:14;;;;;;;1.23;0.60;;;;;;;11.59;100.00;94618.41;10399635;27;97031;-84
2022/09/28 21:27:17;;;;;;;0.60;0.60;;;;;;;11.58;100.00;94622.84;10391426;28;97101;-84
2022/09/28 21:32:22;;;;;;;1.40;0.50;;;;;;;11.59;100.00;94624.47;10401683;28;97588;-84
2022/09/28 21:37:24;;;;;;;0.90;0.60;;;;;;;11.58;100.00;94607.16;10389906;27;96948;-84
2022/09/28 21:42:27;;;;;;;3.75;1.65;;;;;;;11.59;100.00;94598.31;10396666;28;99381;-84
2022/09/28 21:47:31;;;;;;;1.17;0.70;;;;;;;11.60;100.00;94604.34;10403450;27;96823;-84
2022/09/28 21:52:34;;;;;;;0.77;0.77;;;;;;;11.55;100.00;94602.31;10384100;28;97917;-84
2022/09/28 21:57:37;;;;;;;1.38;1.05;;;;;;;11.55;100.00;94607.53;10390368;28;97375;-85
2022/09/28 22:02:41;;;;;;;3.30;1.30;;;;;;;11.57;100.00;94595.06;10392958;27;97178;-85
2022/09/28 22:07:44;;;;;;;2.50;1.40;;;;;;;11.60;100.00;94586.84;10406715;27;96879;-84
2022/09/28 22:12:48;;;;;;;2.30;1.27;;;;;;;11.60;100.00;94589.47;10409692;27;97154;-84
2022/09/28 22:17:53;;;;;;;2.60;1.60;;;;;;;11.59;100.00;94587.88;10422128;28;96930;-84
2022/09/28 22:22:55;;;;;;;3.22;2.13;;;;;;;11.55;100.00;94597.06;10421549;27;97989;-84
2022/09/28 22:27:58;;;;;;;5.25;3.15;;;;;;;11.54;100.00;94598.09;10403468;28;98744;-85
2022/09/28 22:33:02;;;;;;;2.97;2.10;;;;;;;11.55;100.00;94591.84;10385981;28;96816;-84
2022/09/28 22:38:05;;;;;;;2.37;1.90;;;;;;;11.54;100.00;94595.47;10388490;28;96844;-84
2022/09/28 22:43:08;;;;;;;4.00;1.80;;;;;;;11.52;100.00;94592.25;10389597;27;97198;-84
2022/09/28 22:48:13;;;;;;;6.07;2.58;;;;;;;11.49;100.00;94587.41;10406126;27;98476;-85
2022/09/28 22:53:16;;;;;;;2.42;2.22;;;;;;;11.50;100.00;94589.00;10400839;28;98623;-84
2022/09/28 22:58:19;;;;;;;2.70;1.95;;;;;;;11.43;100.00;94572.47;10399730;27;97198;-84
2022/09/28 23:03:23;;;;;;;2.20;2.00;;;;;;;11.38;100.00;94574.88;10404237;28;96892;-84
2022/09/28 23:08:26;;;;;;;2.77;2.10;;;;;;;11.36;100.00;94581.13;10384198;28;97066;-84
2022/09/28 23:13:29;;;;;;;3.88;1.92;;;;;;;11.31;100.00;94578.28;10420842;27;97044;-84
2022/09/28 23:18:36;;;;;;;4.28;2.30;;;;;;;11.30;100.00;94571.38;10422619;27;97697;-85
2022/09/28 23:23:39;;;;;;;2.92;2.20;;;;;;;11.31;100.00;94575.66;10422600;28;96971;-84
2022/09/28 23:28:42;;;;;;;3.03;2.15;;;;;;;11.32;100.00;94561.56;10440050;27;96704;-84
2022/09/28 23:33:50;;;;;;;3.13;1.83;;;;;;;11.35;100.00;94566.41;10464377;27;98535;-84
2022/09/28 23:38:53;;;;;;;4.10;2.05;;;;;;;11.37;100.00;94568.84;10463769;27;97398;-84
2022/09/28 23:43:56;;;;;;;3.63;2.50;;;;;;;11.41;100.00;94564.03;10445612;27;97061;-84
2022/09/28 23:49:00;;;;;;;2.10;1.45;;;;;;;11.43;100.00;94554.97;10440896;27;97178;-84
2022/09/28 23:54:05;;;;;;;1.83;1.58;;;;;;;11.42;100.00;94544.75;10419733;28;96791;-84